createdAt,value
2017-04-08T00:00:28.598Z,10.03
2017-04-08T00:01:28.677Z,9.99
2017-04-08T00:02:28.668Z,10.02
2017-04-08T00:03:28.685Z,9.95
2017-04-08T00:04:28.703Z,10.07
2017-04-08T00:05:28.752Z,9.96
2017-04-08T00:06:28.791Z,9.95
2017-04-08T00:07:28.772Z,9.99
2017-04-08T00:08:28.819Z,9.95
2017-04-08T00:09:28.832Z,10.08
2017-04-08T00:10:28.933Z,10.08
2017-04-08T00:11:28.940Z,9.95
2017-04-08T00:12:28.928Z,10.02
2017-04-08T00:13:28.999Z,9.95
2017-04-08T00:14:29.047Z,10.03
2017-04-08T00:15:29.031Z,10
2017-04-08T00:16:29.110Z,10.05
2017-04-08T00:17:29.113Z,10.02
2017-04-08T00:18:29.181Z,10.08
2017-04-08T00:19:29.156Z,9.96
2017-04-08T00:20:29.183Z,9.96
2017-04-08T00:21:29.263Z,9.95
2017-04-08T00:22:29.257Z,9.92
2017-04-08T00:23:29.321Z,9.95
2017-04-08T00:24:29.346Z,9.96
2017-04-08T00:25:29.358Z,9.99
2017-04-08T00:26:29.386Z,10.02
2017-04-08T00:27:29.443Z,9.96
2017-04-08T00:28:29.447Z,9.95
2017-04-08T00:29:29.469Z,9.93
2017-04-08T00:30:29.503Z,9.99
2017-04-08T00:31:29.510Z,9.93
2017-04-08T00:32:29.534Z,9.93
2017-04-08T00:33:29.603Z,9.9
2017-04-08T00:34:29.589Z,10
2017-04-08T00:35:29.628Z,9.9
2017-04-08T00:36:29.686Z,9.95
2017-04-08T00:37:29.729Z,9.98
2017-04-08T00:38:29.747Z,9.96
2017-04-08T00:39:29.743Z,9.93
2017-04-08T00:40:29.779Z,9.93
2017-04-08T00:41:29.859Z,9.81
2017-04-08T00:42:29.853Z,9.95
2017-04-08T00:43:29.887Z,9.84
2017-04-08T00:44:29.956Z,9.81
2017-04-08T00:45:29.948Z,9.93
2017-04-08T00:46:29.952Z,9.88
2017-04-08T00:47:29.978Z,9.85
2017-04-08T00:48:30.033Z,9.92
2017-04-08T00:49:30.063Z,9.92
2017-04-08T00:50:30.137Z,9.9
2017-04-08T00:51:30.121Z,9.92
2017-04-08T00:52:30.134Z,9.85
2017-04-08T00:53:30.169Z,9.9
2017-04-08T00:54:30.202Z,9.89
2017-04-08T00:55:30.281Z,9.96
2017-04-08T00:56:30.287Z,9.95
2017-04-08T00:57:30.281Z,9.85
2017-04-08T00:58:30.403Z,9.88
2017-04-08T00:59:30.365Z,9.85
2017-04-08T01:00:30.557Z,9.82
2017-04-08T01:01:30.435Z,9.84
2017-04-08T01:02:30.430Z,9.85
2017-04-08T01:03:30.491Z,9.89
2017-04-08T01:04:30.548Z,9.85
2017-04-08T01:05:30.550Z,9.9
2017-04-08T01:06:30.543Z,9.89
2017-04-08T01:07:30.591Z,9.85
2017-04-08T01:08:30.641Z,9.89
2017-04-08T01:09:30.641Z,9.81
2017-04-08T01:10:30.702Z,9.88
2017-04-08T01:11:30.696Z,9.81
2017-04-08T01:12:30.765Z,9.88
2017-04-08T01:13:30.764Z,9.88
2017-04-08T01:14:30.795Z,9.82
2017-04-08T01:15:30.854Z,9.82
2017-04-08T01:16:30.862Z,9.89
2017-04-08T01:17:30.943Z,9.84
2017-04-08T01:18:30.937Z,9.77
2017-04-08T01:19:30.937Z,9.8
2017-04-08T01:20:31.001Z,9.8
2017-04-08T01:21:31.038Z,9.8
2017-04-08T01:22:31.044Z,9.81
2017-04-08T01:23:31.086Z,9.74
2017-04-08T01:24:31.098Z,9.81
2017-04-08T01:25:31.147Z,9.7
2017-04-08T01:26:31.179Z,9.81
2017-04-08T01:27:31.179Z,9.82
2017-04-08T01:28:31.242Z,9.8
2017-04-08T01:29:31.247Z,9.78
2017-04-08T01:30:31.325Z,9.75
2017-04-08T01:31:31.287Z,9.77
2017-04-08T01:32:31.365Z,9.75
2017-04-08T01:33:31.346Z,9.72
2017-04-08T01:34:31.451Z,9.8
2017-04-08T01:35:31.451Z,9.8
2017-04-08T01:36:31.443Z,9.77
2017-04-08T01:37:31.478Z,9.77
2017-04-08T01:38:31.547Z,9.74
2017-04-08T01:39:31.539Z,9.77
2017-04-08T01:40:31.579Z,9.74
2017-04-08T01:41:31.599Z,9.72
2017-04-08T01:42:31.646Z,9.7
2017-04-08T01:43:31.668Z,9.64
2017-04-08T01:44:31.722Z,9.72
2017-04-08T01:45:31.748Z,9.67
2017-04-08T01:46:31.740Z,9.6
2017-04-08T01:47:31.864Z,9.64
2017-04-08T01:48:31.806Z,9.62
2017-04-08T01:49:31.844Z,9.66
2017-04-08T01:50:32.065Z,9.6
2017-04-08T01:51:31.949Z,9.6
2017-04-08T01:52:31.987Z,9.64
2017-04-08T01:53:31.995Z,9.53
2017-04-08T01:54:32.020Z,9.6
2017-04-08T01:55:32.050Z,9.48
2017-04-08T01:56:32.078Z,9.53
2017-04-08T01:57:32.106Z,9.59
2017-04-08T01:58:32.101Z,9.47
2017-04-08T01:59:32.146Z,9.62
2017-04-08T02:00:32.385Z,9.53
2017-04-08T02:01:32.210Z,9.44
2017-04-08T02:02:32.267Z,9.52
2017-04-08T02:03:32.275Z,9.53
2017-04-08T02:04:32.292Z,9.53
2017-04-08T02:05:32.350Z,9.5
2017-04-08T02:06:32.375Z,9.48
2017-04-08T02:07:32.405Z,9.48
2017-04-08T02:08:32.400Z,9.47
2017-04-08T02:09:32.446Z,9.48
2017-04-08T02:10:32.506Z,9.48
2017-04-08T02:11:32.523Z,9.42
2017-04-08T02:12:32.553Z,9.47
2017-04-08T02:13:32.575Z,9.48
2017-04-08T02:14:32.590Z,9.38
2017-04-08T02:15:32.622Z,9.35
2017-04-08T02:16:32.675Z,9.44
2017-04-08T02:17:32.735Z,9.34
2017-04-08T02:18:32.707Z,9.41
2017-04-08T02:19:32.795Z,9.39
2017-04-08T02:20:32.751Z,9.37
2017-04-08T02:21:32.819Z,9.41
2017-04-08T02:22:32.862Z,9.27
2017-04-08T02:23:32.855Z,9.32
2017-04-08T02:24:32.900Z,9.39
2017-04-08T02:25:32.921Z,9.35
2017-04-08T02:26:32.950Z,9.3
2017-04-08T02:27:33.007Z,9.42
2017-04-08T02:28:33.061Z,9.34
2017-04-08T02:29:33.051Z,9.34
2017-04-08T02:30:33.079Z,9.35
2017-04-08T02:31:33.119Z,9.39
2017-04-08T02:32:33.150Z,9.27
2017-04-08T02:33:33.177Z,9.29
2017-04-08T02:34:33.208Z,9.27
2017-04-08T02:35:33.269Z,9.35
2017-04-08T02:36:33.296Z,9.45
2017-04-08T02:37:33.277Z,9.37
2017-04-08T02:38:33.313Z,9.37
2017-04-08T02:39:33.352Z,9.34
2017-04-08T02:40:33.355Z,9.27
2017-04-08T02:41:33.424Z,9.35
2017-04-08T02:42:33.441Z,9.32
2017-04-08T02:43:33.474Z,9.35
2017-04-08T02:44:33.504Z,9.27
2017-04-08T02:45:33.559Z,9.35
2017-04-08T02:46:33.587Z,9.32
2017-04-08T02:47:33.558Z,9.29
2017-04-08T02:48:33.599Z,9.19
2017-04-08T02:49:33.616Z,9.21
2017-04-08T02:50:33.680Z,9.14
2017-04-08T02:51:33.742Z,9.21
2017-04-08T02:52:33.702Z,9.2
2017-04-08T02:53:33.756Z,9.27
2017-04-08T02:54:33.796Z,9.17
2017-04-08T02:55:33.858Z,9.2
2017-04-08T02:56:33.864Z,9.23
2017-04-08T02:57:33.875Z,9.26
2017-04-08T02:58:33.900Z,9.21
2017-04-08T02:59:33.927Z,9.14
2017-04-08T03:00:34.008Z,9.19
2017-04-08T03:01:34.010Z,9.14
2017-04-08T03:02:34.070Z,9.16
2017-04-08T03:03:34.062Z,9.11
2017-04-08T03:04:34.061Z,9.09
2017-04-08T03:05:34.104Z,9.09
2017-04-08T03:06:34.186Z,9.04
2017-04-08T03:07:34.179Z,9.14
2017-04-08T03:08:34.225Z,9.19
2017-04-08T03:09:34.234Z,9.11
2017-04-08T03:10:34.239Z,9.12
2017-04-08T03:11:34.281Z,9.12
2017-04-08T03:12:34.361Z,9.11
2017-04-08T03:13:34.365Z,9.05
2017-04-08T03:14:34.398Z,9.21
2017-04-08T03:15:34.423Z,9.01
2017-04-08T03:16:34.447Z,9.09
2017-04-08T03:17:34.449Z,9.19
2017-04-08T03:18:34.507Z,9.14
2017-04-08T03:19:34.541Z,9.05
2017-04-08T03:20:34.566Z,9
2017-04-08T03:21:34.621Z,9.08
2017-04-08T03:22:34.598Z,9.14
2017-04-08T03:23:34.647Z,9.03
2017-04-08T03:24:34.700Z,9.11
2017-04-08T03:25:34.690Z,9.01
2017-04-08T03:26:34.747Z,8.95
2017-04-08T03:27:34.743Z,8.98
2017-04-08T03:28:34.813Z,9.01
2017-04-08T03:29:34.810Z,9.01
2017-04-08T03:30:34.839Z,9
2017-04-08T03:31:35.303Z,8.98
2017-04-08T03:32:34.960Z,9.11
2017-04-08T03:33:34.957Z,9.08
2017-04-08T03:34:35.020Z,9.05
2017-04-08T03:35:34.997Z,9.04
2017-04-08T03:36:35.044Z,9.01
2017-04-08T03:37:35.066Z,9.05
2017-04-08T03:38:35.077Z,9.05
2017-04-08T03:39:35.109Z,9.03
2017-04-08T03:40:35.217Z,9.04
2017-04-08T03:41:35.223Z,9.05
2017-04-08T03:42:35.222Z,9.03
2017-04-08T03:43:35.247Z,9.05
2017-04-08T03:44:35.241Z,9.04
2017-04-08T03:45:35.326Z,9.05
2017-04-08T03:46:35.368Z,9.04
2017-04-08T03:47:35.357Z,9.03
2017-04-08T03:48:35.401Z,9
2017-04-08T03:49:35.395Z,8.98
2017-04-08T03:50:35.492Z,9.01
2017-04-08T03:51:35.479Z,8.89
2017-04-08T03:52:35.550Z,8.97
2017-04-08T03:53:35.536Z,8.95
2017-04-08T03:54:35.566Z,8.97
2017-04-08T03:55:35.606Z,8.98
2017-04-08T03:56:35.625Z,9
2017-04-08T03:57:35.655Z,8.97
2017-04-08T03:58:35.686Z,9.03
2017-04-08T03:59:35.773Z,9.03
2017-04-08T04:00:35.723Z,9.01
2017-04-08T04:01:35.726Z,9.05
2017-04-08T04:02:35.778Z,9.01
2017-04-08T04:03:35.785Z,8.98
2017-04-08T04:04:35.821Z,9.04
2017-04-08T04:05:35.858Z,9.05
2017-04-08T04:06:35.896Z,9
2017-04-08T04:07:35.904Z,9.04
2017-04-08T04:08:35.937Z,9.05
2017-04-08T04:09:35.990Z,9
2017-04-08T04:10:35.992Z,9.03
2017-04-08T04:11:36.035Z,9.04
2017-04-08T04:12:36.072Z,9.03
2017-04-08T04:13:36.098Z,9
2017-04-08T04:14:36.125Z,9.01
2017-04-08T04:15:36.154Z,9.03
2017-04-08T04:16:36.160Z,8.98
2017-04-08T04:17:36.210Z,9.05
2017-04-08T04:18:36.233Z,9
2017-04-08T04:19:36.306Z,9.03
2017-04-08T04:20:36.302Z,9.08
2017-04-08T04:21:36.336Z,9.04
2017-04-08T04:22:36.392Z,9.03
2017-04-08T04:23:36.390Z,9.03
2017-04-08T04:24:36.429Z,9.01
2017-04-08T04:25:36.456Z,9.08
2017-04-08T04:26:36.481Z,9.04
2017-04-08T04:27:36.510Z,9.04
2017-04-08T04:28:36.520Z,9.08
2017-04-08T04:29:36.564Z,9.01
2017-04-08T04:30:36.598Z,9.01
2017-04-08T04:31:36.604Z,9.03
2017-04-08T04:32:36.656Z,9.09
2017-04-08T04:33:36.688Z,9.01
2017-04-08T04:34:36.716Z,9.03
2017-04-08T04:35:36.731Z,9.17
2017-04-08T04:36:36.772Z,9
2017-04-08T04:37:36.816Z,9.19
2017-04-08T04:38:36.820Z,9.19
2017-04-08T04:39:36.848Z,9.19
2017-04-08T04:40:36.888Z,9.09
2017-04-08T04:41:36.908Z,9.12
2017-04-08T04:42:36.953Z,9.16
2017-04-08T04:43:36.982Z,9.12
2017-04-08T04:44:37.010Z,9.09
2017-04-08T04:45:37.016Z,9.11
2017-04-08T04:46:37.061Z,9.17
2017-04-08T04:47:37.106Z,9.14
2017-04-08T04:48:37.138Z,9.2
2017-04-08T04:49:37.135Z,9.27
2017-04-08T04:50:37.194Z,9.23
2017-04-08T04:51:37.227Z,9.21
2017-04-08T04:52:37.238Z,9.24
2017-04-08T04:53:37.281Z,9.21
2017-04-08T04:54:37.311Z,9.32
2017-04-08T04:55:37.347Z,9.32
2017-04-08T04:56:37.370Z,9.29
2017-04-08T04:57:37.397Z,9.32
2017-04-08T04:58:37.436Z,9.32
2017-04-08T04:59:37.453Z,9.3
2017-04-08T05:00:37.479Z,9.29
2017-04-08T05:01:37.520Z,9.38
2017-04-08T05:02:37.538Z,9.35
2017-04-08T05:03:37.579Z,9.39
2017-04-08T05:04:37.604Z,9.38
2017-04-08T05:05:37.620Z,9.42
2017-04-08T05:06:37.653Z,9.39
2017-04-08T05:07:37.695Z,9.5
2017-04-08T05:08:37.734Z,9.41
2017-04-08T05:09:37.754Z,9.39
2017-04-08T05:10:37.779Z,9.48
2017-04-08T05:11:37.819Z,9.5
2017-04-08T05:12:37.841Z,9.5
2017-04-08T05:13:37.878Z,9.48
2017-04-08T05:14:37.880Z,9.52
2017-04-08T05:15:37.930Z,9.5
2017-04-08T05:16:37.957Z,9.56
2017-04-08T05:17:38.002Z,9.48
2017-04-08T05:18:38.028Z,9.56
2017-04-08T05:19:38.052Z,9.55
2017-04-08T05:20:38.092Z,9.62
2017-04-08T05:21:38.119Z,9.66
2017-04-08T05:22:38.126Z,9.63
2017-04-08T05:23:38.170Z,9.6
2017-04-08T05:24:38.181Z,9.63
2017-04-08T05:25:38.238Z,9.59
2017-04-08T05:26:38.263Z,9.53
2017-04-08T05:27:38.292Z,9.64
2017-04-08T05:28:38.336Z,9.64
2017-04-08T05:29:38.339Z,9.71
2017-04-08T05:30:38.365Z,9.62
2017-04-08T05:31:38.406Z,9.62
2017-04-08T05:32:38.446Z,9.62
2017-04-08T05:33:38.458Z,9.64
2017-04-08T05:34:38.502Z,9.64
2017-04-08T05:35:38.535Z,9.6
2017-04-08T05:36:38.538Z,9.62
2017-04-08T05:37:38.572Z,9.7
2017-04-08T05:38:38.591Z,9.63
2017-04-08T05:39:38.648Z,9.57
2017-04-08T05:40:38.679Z,9.71
2017-04-08T05:41:38.709Z,9.63
2017-04-08T05:42:38.746Z,9.63
2017-04-08T05:43:38.778Z,9.6
2017-04-08T05:44:38.804Z,9.67
2017-04-08T05:45:38.826Z,9.59
2017-04-08T05:46:38.861Z,9.64
2017-04-08T05:47:38.891Z,9.62
2017-04-08T05:48:38.920Z,9.59
2017-04-08T05:49:38.958Z,9.6
2017-04-08T05:50:38.990Z,9.64
2017-04-08T05:51:39.019Z,9.64
2017-04-08T05:52:39.048Z,9.72
2017-04-08T05:53:39.048Z,9.74
2017-04-08T05:54:39.103Z,9.75
2017-04-08T05:55:39.107Z,9.72
2017-04-08T05:56:39.147Z,9.78
2017-04-08T05:57:39.192Z,9.74
2017-04-08T05:58:39.221Z,9.74
2017-04-08T05:59:39.254Z,9.7
2017-04-08T06:00:39.320Z,9.75
2017-04-08T06:01:39.336Z,9.78
2017-04-08T06:02:39.352Z,9.85
2017-04-08T06:03:39.369Z,9.77
2017-04-08T06:04:39.393Z,9.81
2017-04-08T06:05:39.431Z,9.81
2017-04-08T06:06:39.435Z,9.84
2017-04-08T06:07:39.493Z,9.92
2017-04-08T06:08:39.523Z,9.88
2017-04-08T06:09:39.554Z,9.89
2017-04-08T06:10:39.569Z,9.95
2017-04-08T06:11:39.614Z,10.05
2017-04-08T06:12:39.658Z,10.15
2017-04-08T06:13:39.663Z,10.07
2017-04-08T06:14:39.711Z,10.08
2017-04-08T06:15:39.735Z,10.17
2017-04-08T06:16:39.762Z,10.05
2017-04-08T06:17:39.792Z,10.08
2017-04-08T06:18:39.839Z,10.13
2017-04-08T06:19:39.842Z,10.08
2017-04-08T06:20:39.873Z,10.02
2017-04-08T06:21:39.927Z,10.08
2017-04-08T06:22:39.942Z,10.11
2017-04-08T06:23:39.973Z,10.05
2017-04-08T06:24:40.001Z,10.14
2017-04-08T06:25:40.041Z,10.13
2017-04-08T06:26:40.048Z,10.11
2017-04-08T06:27:40.092Z,10.02
2017-04-08T06:28:40.120Z,10.07
2017-04-08T06:29:40.156Z,10.05
2017-04-08T06:30:40.173Z,10.11
2017-04-08T06:31:40.209Z,10.14
2017-04-08T06:32:40.254Z,10.15
2017-04-08T06:33:40.277Z,10.23
2017-04-08T06:34:40.312Z,10.36
2017-04-08T06:35:40.317Z,10.21
2017-04-08T06:36:40.374Z,10.33
2017-04-08T06:37:40.392Z,10.41
2017-04-08T06:38:40.419Z,10.33
2017-04-08T06:39:40.455Z,10.49
2017-04-08T06:40:40.458Z,10.39
2017-04-08T06:41:40.489Z,10.44
2017-04-08T06:42:40.556Z,10.49
2017-04-08T06:43:40.556Z,10.52
2017-04-08T06:44:40.616Z,10.39
2017-04-08T06:45:40.636Z,10.44
2017-04-08T06:46:40.674Z,10.44
2017-04-08T06:47:40.695Z,10.47
2017-04-08T06:48:40.743Z,10.39
2017-04-08T06:49:40.760Z,10.38
2017-04-08T06:50:40.787Z,10.39
2017-04-08T06:51:40.830Z,10.47
2017-04-08T06:52:40.850Z,10.58
2017-04-08T06:53:40.888Z,10.54
2017-04-08T06:54:40.929Z,10.51
2017-04-08T06:55:40.952Z,10.54
2017-04-08T06:56:40.978Z,10.63
2017-04-08T06:57:41.000Z,10.7
2017-04-08T06:58:41.030Z,10.76
2017-04-08T06:59:41.066Z,10.84
2017-04-08T07:00:41.084Z,10.9
2017-04-08T07:01:41.127Z,10.9
2017-04-08T07:02:41.141Z,10.98
2017-04-08T07:03:41.188Z,11.03
2017-04-08T07:04:41.214Z,11.05
2017-04-08T07:05:41.243Z,10.95
2017-04-08T07:06:41.285Z,11.08
2017-04-08T07:07:41.316Z,11
2017-04-08T07:08:41.337Z,11.05
2017-04-08T07:09:41.372Z,11.13
2017-04-08T07:10:41.394Z,11.18
2017-04-08T07:11:41.444Z,11.16
2017-04-08T07:12:41.450Z,11.2
2017-04-08T07:13:41.508Z,11.16
2017-04-08T07:14:41.540Z,11.2
2017-04-08T07:15:41.552Z,11.18
2017-04-08T07:16:41.583Z,11.1
2017-04-08T07:17:41.608Z,11.2
2017-04-08T07:18:41.644Z,11.21
2017-04-08T07:19:41.673Z,11.23
2017-04-08T07:20:41.691Z,11.24
2017-04-08T07:21:41.733Z,11.27
2017-04-08T07:22:41.778Z,11.27
2017-04-08T07:23:41.788Z,11.2
2017-04-08T07:24:41.833Z,11.31
2017-04-08T07:25:41.853Z,11.49
2017-04-08T07:26:41.890Z,11.6
2017-04-08T07:27:41.929Z,11.68
2017-04-08T07:28:41.936Z,11.73
2017-04-08T07:29:42.000Z,11.68
2017-04-08T07:30:42.013Z,11.75
2017-04-08T07:31:42.048Z,11.64
2017-04-08T07:32:42.081Z,11.67
2017-04-08T07:33:42.097Z,11.53
2017-04-08T07:34:42.137Z,11.49
2017-04-08T07:35:42.176Z,11.49
2017-04-08T07:36:42.189Z,11.52
2017-04-08T07:37:42.232Z,11.48
2017-04-08T07:38:42.267Z,11.52
2017-04-08T07:39:42.289Z,11.6
2017-04-08T07:40:42.321Z,11.61
2017-04-08T07:41:42.362Z,11.7
2017-04-08T07:42:42.386Z,11.81
2017-04-08T07:43:42.426Z,11.85
2017-04-08T07:44:42.445Z,11.84
2017-04-08T07:45:42.489Z,11.88
2017-04-08T07:46:42.514Z,11.91
2017-04-08T07:47:42.545Z,11.86
2017-04-08T07:48:42.575Z,11.97
2017-04-08T07:49:42.590Z,11.94
2017-04-08T07:50:42.628Z,11.84
2017-04-08T07:51:42.667Z,11.89
2017-04-08T07:52:42.694Z,11.97
2017-04-08T07:53:42.737Z,12.01
2017-04-08T07:54:42.761Z,12
2017-04-08T07:55:42.778Z,12.04
2017-04-08T07:56:42.835Z,12.08
2017-04-08T07:57:42.866Z,12.2
2017-04-08T07:58:42.901Z,12.23
2017-04-08T07:59:42.908Z,12.28
2017-04-08T08:00:42.948Z,12.29
2017-04-08T08:01:42.981Z,12.36
2017-04-08T08:02:43.008Z,12.33
2017-04-08T08:03:43.050Z,12.37
2017-04-08T08:04:43.089Z,12.4
2017-04-08T08:05:43.074Z,12.45
2017-04-08T08:06:43.137Z,12.4
2017-04-08T08:07:43.177Z,12.47
2017-04-08T08:08:43.199Z,12.48
2017-04-08T08:09:43.234Z,12.37
2017-04-08T08:10:43.261Z,12.37
2017-04-08T08:11:43.277Z,12.34
2017-04-08T08:12:43.336Z,12.37
2017-04-08T08:13:43.361Z,12.36
2017-04-08T08:14:43.396Z,12.31
2017-04-08T08:15:43.420Z,12.28
2017-04-08T08:16:43.461Z,12.33
2017-04-08T08:17:43.470Z,12.33
2017-04-08T08:18:43.513Z,12.45
2017-04-08T08:19:43.549Z,12.44
2017-04-08T08:20:43.595Z,12.61
2017-04-08T08:21:43.614Z,12.62
2017-04-08T08:22:43.649Z,12.69
2017-04-08T08:23:43.681Z,12.84
2017-04-08T08:24:43.694Z,12.96
2017-04-08T08:25:43.732Z,13.17
2017-04-08T08:26:43.777Z,13.16
2017-04-08T08:27:43.789Z,13.2
2017-04-08T08:28:43.836Z,13.25
2017-04-08T08:29:43.866Z,13.32
2017-04-08T08:30:43.894Z,13.51
2017-04-08T08:31:43.935Z,13.68
2017-04-08T08:32:43.969Z,13.55
2017-04-08T08:33:43.979Z,13.62
2017-04-08T08:34:44.088Z,13.53
2017-04-08T08:35:44.067Z,13.48
2017-04-08T08:36:44.095Z,13.54
2017-04-08T08:37:44.112Z,13.66
2017-04-08T08:38:44.168Z,13.69
2017-04-08T08:39:44.195Z,13.83
2017-04-08T08:40:44.199Z,13.81
2017-04-08T08:41:44.252Z,13.83
2017-04-08T08:42:44.304Z,13.79
2017-04-08T08:43:44.319Z,13.93
2017-04-08T08:44:44.351Z,14.06
2017-04-08T08:45:44.389Z,14.74
2017-04-08T08:46:44.406Z,15.35
2017-04-08T08:47:44.453Z,15.56
2017-04-08T08:48:44.476Z,15.73
2017-04-08T08:49:44.509Z,15.99
2017-04-08T08:50:44.546Z,16.21
2017-04-08T08:51:44.581Z,15.93
2017-04-08T08:52:44.615Z,15.68
2017-04-08T08:53:44.614Z,15.41
2017-04-08T08:54:44.662Z,15.3
2017-04-08T08:55:44.713Z,15.12
2017-04-08T08:56:44.750Z,14.83
2017-04-08T08:57:44.784Z,14.71
2017-04-08T08:58:44.810Z,14.69
2017-04-08T08:59:44.847Z,14.63
2017-04-08T09:00:44.888Z,14.42
2017-04-08T09:01:44.894Z,14.3
2017-04-08T09:02:44.927Z,14.27
2017-04-08T09:03:45.000Z,14.26
2017-04-08T09:04:45.021Z,14.21
2017-04-08T09:05:45.056Z,14.26
2017-04-08T09:06:45.082Z,14.36
2017-04-08T09:07:45.122Z,14.48
2017-04-08T09:08:45.134Z,14.71
2017-04-08T09:09:45.188Z,14.82
2017-04-08T09:10:45.202Z,15.16
2017-04-08T09:11:45.261Z,15.27
2017-04-08T09:12:45.286Z,15.44
2017-04-08T09:13:45.321Z,15.45
2017-04-08T09:14:45.333Z,15.34
2017-04-08T09:15:45.379Z,15.18
2017-04-08T09:16:45.416Z,15.08
2017-04-08T09:17:45.425Z,14.9
2017-04-08T09:18:45.482Z,14.71
2017-04-08T09:19:45.518Z,14.75
2017-04-08T09:20:45.544Z,14.8
2017-04-08T09:21:45.583Z,14.97
2017-04-08T09:22:45.610Z,15.37
2017-04-08T09:23:45.654Z,15.71
2017-04-08T09:24:45.686Z,16.27
2017-04-08T09:25:45.720Z,17.09
2017-04-08T09:26:45.744Z,17.94
2017-04-08T09:27:45.782Z,18.29
2017-04-08T09:28:45.787Z,18.26
2017-04-08T09:29:45.860Z,18.05
2017-04-08T09:30:45.881Z,17.58
2017-04-08T09:31:45.900Z,17.46
2017-04-08T09:32:45.966Z,17.38
2017-04-08T09:33:45.994Z,17.32
2017-04-08T09:34:46.022Z,17.24
2017-04-08T09:35:46.365Z,17.2
2017-04-08T09:36:46.100Z,17.24
2017-04-08T09:37:46.102Z,17.39
2017-04-08T09:38:46.175Z,17.35
2017-04-08T09:39:46.201Z,17.5
2017-04-08T09:40:46.390Z,18.26
2017-04-08T09:41:46.310Z,19.87
2017-04-08T09:42:46.308Z,20.71
2017-04-08T09:43:46.335Z,20.68
2017-04-08T09:44:46.380Z,20.18
2017-04-08T09:45:46.565Z,19.55
2017-04-08T09:46:46.451Z,19.05
2017-04-08T09:47:46.482Z,19.28
2017-04-08T09:48:46.514Z,19.63
2017-04-08T09:49:46.557Z,19.7
2017-04-08T09:50:46.597Z,20.66
2017-04-08T09:51:46.609Z,21.37
2017-04-08T09:52:46.669Z,21.38
2017-04-08T09:53:46.716Z,21.49
2017-04-08T09:54:46.739Z,21.62
2017-04-08T09:55:46.778Z,21.61
2017-04-08T09:56:46.816Z,21.46
2017-04-08T09:57:46.858Z,21.3
2017-04-08T09:58:46.909Z,21.61
2017-04-08T09:59:46.930Z,22.18
2017-04-08T10:00:46.973Z,23.19
2017-04-08T10:01:47.013Z,23.7
2017-04-08T10:02:47.044Z,23.99
2017-04-08T10:03:47.088Z,23.64
2017-04-08T10:04:47.122Z,22.88
2017-04-08T10:05:47.161Z,22.23
2017-04-08T10:06:47.233Z,21.23
2017-04-08T10:07:47.224Z,20.51
2017-04-08T10:08:47.277Z,20.1
2017-04-08T10:09:47.323Z,19.75
2017-04-08T10:10:47.337Z,19.83
2017-04-08T10:11:47.381Z,20.44
2017-04-08T10:12:47.414Z,20.85
2017-04-08T10:13:47.467Z,20.41
2017-04-08T10:14:47.478Z,20.07
2017-04-08T10:15:47.526Z,19.86
2017-04-08T10:16:47.573Z,19.87
2017-04-08T10:17:47.614Z,20.3
2017-04-08T10:18:47.648Z,20.54
2017-04-08T10:19:47.677Z,20.64
2017-04-08T10:20:47.733Z,20.44
2017-04-08T10:21:47.739Z,20.27
2017-04-08T10:22:47.799Z,19.87
2017-04-08T10:23:47.846Z,19.6
2017-04-08T10:24:47.873Z,19.46
2017-04-08T10:25:47.913Z,19.83
2017-04-08T10:26:48.296Z,20.67
2017-04-08T10:27:47.948Z,22.16
2017-04-08T10:28:48.026Z,23.37
2017-04-08T10:29:48.052Z,23.64
2017-04-08T10:30:48.090Z,24.3
2017-04-08T10:31:48.130Z,24.67
2017-04-08T10:32:48.143Z,24.44
2017-04-08T10:33:48.202Z,23.92
2017-04-08T10:34:48.208Z,23.12
2017-04-08T10:35:48.255Z,22.45
2017-04-08T10:36:48.414Z,21.73
2017-04-08T10:37:48.334Z,21.37
2017-04-08T10:38:48.382Z,20.96
2017-04-08T10:39:48.426Z,20.91
2017-04-08T10:40:48.453Z,21.04
2017-04-08T10:41:48.498Z,20.98
2017-04-08T10:42:48.496Z,20.9
2017-04-08T10:43:48.570Z,21.36
2017-04-08T10:44:48.606Z,21.9
2017-04-08T10:45:48.635Z,21.66
2017-04-08T10:46:48.680Z,21.45
2017-04-08T10:47:48.722Z,21.21
2017-04-08T10:48:48.752Z,20.71
2017-04-08T10:49:48.798Z,20.38
2017-04-08T10:50:48.827Z,20
2017-04-08T10:51:48.868Z,19.72
2017-04-08T10:52:48.904Z,19.5
2017-04-08T10:53:48.946Z,19.43
2017-04-08T10:54:48.963Z,19.46
2017-04-08T10:55:49.009Z,19.6
2017-04-08T10:56:49.037Z,20.19
2017-04-08T10:57:49.092Z,21.21
2017-04-08T10:58:49.133Z,21.48
2017-04-08T10:59:49.157Z,21.27
2017-04-08T11:00:49.198Z,20.9
2017-04-08T11:01:49.225Z,20.49
2017-04-08T11:02:49.258Z,20.08
2017-04-08T11:03:49.283Z,20.01
2017-04-08T11:04:49.345Z,19.87
2017-04-08T11:05:49.379Z,19.63
2017-04-08T11:06:49.405Z,19.72
2017-04-08T11:07:49.440Z,20.04
2017-04-08T11:08:49.486Z,20.18
2017-04-08T11:09:49.516Z,19.97
2017-04-08T11:10:49.560Z,19.93
2017-04-08T11:11:49.586Z,20.37
2017-04-08T11:12:49.626Z,20.6
2017-04-08T11:13:49.664Z,20.63
2017-04-08T11:14:49.693Z,20.61
2017-04-08T11:15:49.746Z,20.88
2017-04-08T11:16:49.757Z,21.31
2017-04-08T11:17:49.927Z,21.53
2017-04-08T11:18:49.841Z,21.77
2017-04-08T11:19:49.890Z,22.29
2017-04-08T11:20:49.923Z,22.75
2017-04-08T11:21:49.944Z,23.01
2017-04-08T11:22:50.097Z,22.6
2017-04-08T11:23:50.015Z,22.49
2017-04-08T11:24:50.056Z,22.14
2017-04-08T11:25:50.098Z,21.94
2017-04-08T11:26:50.145Z,21.83
2017-04-08T11:27:50.526Z,21.77
2017-04-08T11:28:50.215Z,21.76
2017-04-08T11:29:50.250Z,21.58
2017-04-08T11:30:50.268Z,21.22
2017-04-08T11:31:50.323Z,21.28
2017-04-08T11:32:50.314Z,21.48
2017-04-08T11:33:50.398Z,21.68
2017-04-08T11:34:50.433Z,21.74
2017-04-08T11:35:50.460Z,21.62
2017-04-08T11:36:50.516Z,21.74
2017-04-08T11:37:50.541Z,21.77
2017-04-08T11:38:50.582Z,21.61
2017-04-08T11:39:50.610Z,21.33
2017-04-08T11:40:50.635Z,21.09
2017-04-08T11:41:50.679Z,20.68
2017-04-08T11:42:50.723Z,20.46
2017-04-08T11:43:50.757Z,20.15
2017-04-08T11:44:50.801Z,19.8
2017-04-08T11:45:50.835Z,19.71
2017-04-08T11:46:50.867Z,19.56
2017-04-08T11:47:50.910Z,19.53
2017-04-08T11:48:50.923Z,19.57
2017-04-08T11:49:50.975Z,19.67
2017-04-08T11:50:51.010Z,19.89
2017-04-08T11:51:51.057Z,20.18
2017-04-08T11:52:51.087Z,20.3
2017-04-08T11:53:51.123Z,20.27
2017-04-08T11:54:51.160Z,20.27
2017-04-08T11:55:51.198Z,20.05
2017-04-08T11:56:51.240Z,20.08
2017-04-08T11:57:51.257Z,20.02
2017-04-08T11:58:51.312Z,19.9
2017-04-08T11:59:51.344Z,19.74
2017-04-08T12:00:51.383Z,19.8
2017-04-08T12:01:51.403Z,19.79
2017-04-08T12:02:51.442Z,19.63
2017-04-08T12:03:51.492Z,19.52
2017-04-08T12:04:51.527Z,19.15
2017-04-08T12:05:51.542Z,18.93
2017-04-08T12:06:51.597Z,18.75
2017-04-08T12:07:51.646Z,18.61
2017-04-08T12:08:51.724Z,18.49
2017-04-08T12:09:51.714Z,18.42
2017-04-08T12:10:51.716Z,18.41
2017-04-08T12:11:51.772Z,18.38
2017-04-08T12:12:51.821Z,18.42
2017-04-08T12:13:52.004Z,18.59
2017-04-08T12:14:51.897Z,18.66
2017-04-08T12:15:51.926Z,18.71
2017-04-08T12:16:51.980Z,18.75
2017-04-08T12:17:52.005Z,18.65
2017-04-08T12:18:52.151Z,18.66
2017-04-08T12:19:52.054Z,18.75
2017-04-08T12:20:52.122Z,18.9
2017-04-08T12:21:52.141Z,19.24
2017-04-08T12:22:52.176Z,19.6
2017-04-08T12:23:52.462Z,19.75
2017-04-08T12:24:52.250Z,19.79
2017-04-08T12:25:52.321Z,19.83
2017-04-08T12:26:52.351Z,19.83
2017-04-08T12:27:52.337Z,19.7
2017-04-08T12:28:52.364Z,19.5
2017-04-08T12:29:52.432Z,19.32
2017-04-08T12:30:52.443Z,19.34
2017-04-08T12:31:52.487Z,19.43
2017-04-08T12:32:52.543Z,19.43
2017-04-08T12:33:52.573Z,19.47
2017-04-08T12:34:52.645Z,19.61
2017-04-08T12:35:52.653Z,19.6
2017-04-08T12:36:52.725Z,19.7
2017-04-08T12:37:52.724Z,19.67
2017-04-08T12:38:52.753Z,19.64
2017-04-08T12:39:52.798Z,19.74
2017-04-08T12:40:52.824Z,19.63
2017-04-08T12:41:52.857Z,19.63
2017-04-08T12:42:52.903Z,19.6
2017-04-08T12:43:52.932Z,19.38
2017-04-08T12:44:52.988Z,19.28
2017-04-08T12:45:52.997Z,19.23
2017-04-08T12:46:53.036Z,19.19
2017-04-08T12:47:53.051Z,19.28
2017-04-08T12:48:53.107Z,19.27
2017-04-08T12:49:53.159Z,19.25
2017-04-08T12:50:53.168Z,19.23
2017-04-08T12:51:53.205Z,19.12
2017-04-08T12:52:53.234Z,19.02
2017-04-08T12:53:53.300Z,18.68
2017-04-08T12:54:53.336Z,18.42
2017-04-08T12:55:53.354Z,18.35
2017-04-08T12:56:53.394Z,18.35
2017-04-08T12:57:53.434Z,18.26
2017-04-08T12:58:53.455Z,18.39
2017-04-08T12:59:53.489Z,18.36
2017-04-08T13:00:53.543Z,18.24
2017-04-08T13:01:53.552Z,18.26
2017-04-08T13:02:53.614Z,18.19
2017-04-08T13:03:53.649Z,18.26
2017-04-08T13:04:53.684Z,18.42
2017-04-08T13:05:53.710Z,18.53
2017-04-08T13:06:53.754Z,18.6
2017-04-08T13:07:53.790Z,18.59
2017-04-08T13:08:53.824Z,18.54